createdAt,value
2023-03-23T15:58:50.360Z,3.30
2023-03-23T15:59:55.011Z,2.90
2023-03-23T16:00:59.194Z,4.72
2023-03-23T16:02:02.750Z,3.10
2023-03-23T16:03:27.593Z,3.25
2023-03-23T16:04:30.993Z,3.08
2023-03-23T16:05:55.960Z,3.47
2023-03-23T16:06:59.193Z,4.00
2023-03-23T16:08:41.319Z,3.53
2023-03-23T16:09:57.822Z,4.25
2023-03-23T16:11:00.511Z,2.47
2023-03-23T16:12:04.713Z,2.45
2023-03-23T16:13:13.473Z,2.92
2023-03-23T16:14:20.451Z,3.17
2023-03-23T16:15:24.346Z,3.65
2023-03-23T16:16:44.201Z,3.45
2023-03-23T16:17:48.086Z,4.13
2023-03-23T16:18:59.712Z,3.40
2023-03-23T16:20:04.071Z,3.40
2023-03-23T16:21:08.355Z,26.83
2023-03-23T16:22:19.286Z,17.15
2023-03-23T16:23:51.625Z,2.75
2023-03-23T16:24:54.094Z,3.13
2023-03-23T16:26:27.883Z,4.72
2023-03-23T16:27:31.160Z,6.40
2023-03-23T16:28:35.100Z,3.20
2023-03-23T16:29:59.809Z,6.20
2023-03-23T16:31:05.102Z,6.07
2023-03-23T16:32:20.410Z,3.55
2023-03-23T16:33:29.797Z,3.35
2023-03-23T16:34:34.933Z,3.95
2023-03-23T16:35:39.108Z,3.45
2023-03-23T16:36:43.496Z,3.60
2023-03-23T16:37:46.401Z,3.80
2023-03-23T16:38:52.962Z,3.53
2023-03-23T16:39:57.780Z,3.75
2023-03-23T16:41:01.532Z,3.08
2023-03-23T16:42:04.397Z,3.00
2023-03-23T16:43:09.914Z,2.88
2023-03-23T16:44:12.699Z,2.88
2023-03-23T16:45:17.286Z,3.20
2023-03-23T16:46:22.166Z,3.00
2023-03-23T16:47:25.810Z,4.00
2023-03-23T16:48:31.418Z,3.40
2023-03-23T16:49:33.713Z,3.45
2023-03-23T16:50:37.296Z,3.03
2023-03-23T16:51:40.571Z,2.97
2023-03-23T16:52:47.537Z,3.53
2023-03-23T16:53:49.615Z,3.17
2023-03-23T16:54:52.643Z,3.28
2023-03-23T16:55:57.744Z,2.95
2023-03-23T16:56:59.988Z,2.95
2023-03-23T16:58:15.372Z,2.80
2023-03-23T16:59:19.302Z,3.55
2023-03-23T17:00:22.161Z,3.20
2023-03-23T17:01:26.549Z,2.80
2023-03-23T17:02:28.983Z,2.35
2023-03-23T17:03:32.106Z,2.85
2023-03-23T17:04:34.640Z,3.33
2023-03-23T17:05:38.545Z,3.05
2023-03-23T17:06:40.455Z,3.35
2023-03-23T17:07:44.944Z,3.30
2023-03-23T17:08:50.929Z,3.63
2023-03-23T17:09:54.013Z,3.58
2023-03-23T17:10:57.056Z,3.60
2023-03-23T17:11:59.204Z,3.78
2023-03-23T17:13:02.340Z,4.45
2023-03-23T17:14:05.622Z,4.13
2023-03-23T17:15:09.014Z,3.40
2023-03-23T17:16:12.016Z,3.28
2023-03-23T17:17:15.693Z,3.55
2023-03-23T17:18:18.643Z,3.78
2023-03-23T17:19:21.844Z,4.00
2023-03-23T17:20:24.404Z,4.05
2023-03-23T17:21:27.414Z,5.05
2023-03-23T17:22:29.430Z,4.00
2023-03-23T17:23:32.332Z,3.75
2023-03-23T17:24:34.236Z,4.32
2023-03-23T17:25:37.099Z,4.82
2023-03-23T17:26:39.957Z,5.20
2023-03-23T17:27:42.764Z,4.45
2023-03-23T17:28:45.895Z,4.35
2023-03-23T17:29:48.001Z,3.90
2023-03-23T17:30:53.028Z,4.50
2023-03-23T17:31:55.069Z,4.35
2023-03-23T17:33:00.171Z,4.78
2023-03-23T17:34:02.735Z,4.32
2023-03-23T17:35:07.045Z,4.43
2023-03-23T17:36:09.684Z,4.85
2023-03-23T17:37:12.720Z,5.30
2023-03-23T17:38:14.624Z,5.68
2023-03-23T17:39:17.646Z,4.32
2023-03-23T17:40:19.910Z,4.60
2023-03-23T17:41:22.860Z,5.13
2023-03-23T17:42:25.042Z,4.70
2023-03-23T17:43:28.231Z,4.45
2023-03-23T17:44:30.641Z,4.80
2023-03-23T17:45:34.103Z,4.03
2023-03-23T17:46:36.280Z,4.57
2023-03-23T17:47:39.532Z,4.57
2023-03-23T17:48:43.025Z,4.32
2023-03-23T17:49:46.526Z,4.35
2023-03-23T17:50:48.925Z,4.53
2023-03-23T17:51:52.142Z,4.80
2023-03-23T17:52:54.210Z,4.32
2023-03-23T17:53:57.298Z,4.63
2023-03-23T17:54:59.236Z,5.32
2023-03-23T17:56:02.906Z,8.02
2023-03-23T17:57:04.862Z,7.88
2023-03-23T17:58:07.831Z,6.55
2023-03-23T17:59:09.647Z,5.50
2023-03-23T18:00:13.705Z,5.22
2023-03-23T18:01:15.996Z,5.97
2023-03-23T18:02:19.592Z,5.13
2023-03-23T18:03:23.145Z,5.60
2023-03-23T18:04:27.025Z,5.60
2023-03-23T18:05:30.981Z,5.60
2023-03-23T18:06:33.170Z,5.70
2023-03-23T18:07:36.805Z,5.80
2023-03-23T18:08:40.296Z,5.65
2023-03-23T18:09:44.039Z,6.18
2023-03-23T18:10:50.329Z,6.07
2023-03-23T18:11:53.060Z,5.78
2023-03-23T18:12:55.930Z,6.40
2023-03-23T18:13:58.300Z,7.28
2023-03-23T18:15:01.531Z,6.60
2023-03-23T18:16:04.756Z,6.18
2023-03-23T18:17:08.348Z,6.53
2023-03-23T18:18:10.476Z,6.32
2023-03-23T18:19:13.615Z,5.75
2023-03-23T18:20:18.454Z,5.95
2023-03-23T18:21:20.711Z,6.45
2023-03-23T18:22:24.094Z,6.20
2023-03-23T18:23:26.272Z,6.70
2023-03-23T18:24:29.262Z,6.80
2023-03-23T18:25:31.369Z,6.95
2023-03-23T18:26:40.555Z,6.63
2023-03-23T18:27:42.699Z,6.95
2023-03-23T18:28:45.843Z,7.10
2023-03-23T18:29:49.332Z,6.80
2023-03-23T18:30:59.946Z,8.68
2023-03-23T18:32:03.213Z,18.27
2023-03-23T18:33:06.151Z,14.15
2023-03-23T18:34:09.238Z,15.95
2023-03-23T18:35:12.955Z,16.98
2023-03-23T18:36:18.649Z,12.13
2023-03-23T18:37:22.373Z,10.50
2023-03-23T18:38:25.019Z,10.45
2023-03-23T18:39:28.241Z,10.77
2023-03-23T18:40:31.542Z,11.32
2023-03-23T18:41:33.741Z,10.75
2023-03-23T18:42:36.960Z,9.77
2023-03-23T18:43:39.138Z,9.00
2023-03-23T18:44:42.575Z,11.15
2023-03-23T18:45:49.569Z,14.70
2023-03-23T18:46:52.804Z,13.57
2023-03-23T18:47:56.624Z,15.27
2023-03-23T18:49:00.435Z,16.83
2023-03-23T18:50:02.959Z,13.32
2023-03-23T18:51:07.319Z,12.70
2023-03-23T18:52:11.811Z,9.02
2023-03-23T18:53:16.304Z,7.72
2023-03-23T18:54:19.386Z,6.85
2023-03-23T18:55:22.159Z,7.30
2023-03-23T18:56:25.633Z,6.60
2023-03-23T18:57:28.974Z,6.78
2023-03-23T18:58:33.712Z,6.65
2023-03-23T18:59:37.062Z,7.03
2023-03-23T19:00:39.987Z,6.63
2023-03-23T19:01:43.407Z,7.47
2023-03-23T19:02:47.352Z,7.70
2023-03-23T19:03:55.443Z,9.80
2023-03-23T19:04:57.678Z,9.20
2023-03-23T19:06:01.561Z,7.80
2023-03-23T19:07:04.495Z,8.70
2023-03-23T19:08:09.048Z,7.90
2023-03-23T19:09:12.397Z,9.82
2023-03-23T19:10:14.380Z,10.75
2023-03-23T19:11:17.699Z,11.35
2023-03-23T19:12:22.323Z,11.55
2023-03-23T19:13:24.748Z,12.35
2023-03-23T19:14:28.289Z,11.73
2023-03-23T19:15:30.387Z,11.38
2023-03-23T19:16:36.411Z,11.55
2023-03-23T19:17:38.762Z,12.93
2023-03-23T19:18:41.713Z,12.32
2023-03-23T19:19:44.955Z,12.43
2023-03-23T19:21:12.161Z,14.07
2023-03-23T19:22:12.093Z,11.13
2023-03-23T19:23:15.613Z,13.23
2023-03-23T19:24:18.627Z,12.20
2023-03-23T19:25:20.548Z,12.38
2023-03-23T19:26:25.246Z,11.07
2023-03-23T19:28:27.553Z,10.35
2023-03-23T19:30:22.674Z,9.75
2023-03-23T19:31:26.168Z,9.60
2023-03-23T19:32:29.818Z,9.73
2023-03-23T19:33:32.181Z,9.20
2023-03-23T19:34:35.421Z,8.63
2023-03-23T19:35:37.815Z,8.98
2023-03-23T19:36:41.425Z,8.82
2023-03-23T19:37:45.597Z,8.32
2023-03-23T19:38:50.409Z,8.65
2023-03-23T19:39:52.652Z,8.68
2023-03-23T19:40:57.860Z,8.50
2023-03-23T19:43:46.577Z,9.00
2023-03-23T19:44:52.756Z,9.05
2023-03-23T19:46:17.792Z,8.55
2023-03-23T19:47:22.306Z,8.82
2023-03-23T19:48:31.121Z,8.43
2023-03-23T19:49:35.614Z,8.50
2023-03-23T19:50:39.908Z,8.60
2023-03-23T19:52:06.533Z,8.88
2023-03-23T19:53:14.842Z,9.52
2023-03-23T19:54:47.328Z,8.93
2023-03-23T19:56:17.455Z,9.18
2023-03-23T19:57:21.213Z,9.07
2023-03-23T19:58:26.685Z,10.25
2023-03-23T19:59:29.800Z,9.25
2023-03-23T20:00:36.596Z,10.05
2023-03-23T20:01:43.070Z,9.90
2023-03-23T20:02:49.015Z,9.30
2023-03-23T20:03:53.531Z,9.63
2023-03-23T20:05:03.959Z,9.52
2023-03-23T20:06:09.829Z,10.00
2023-03-23T20:08:43.640Z,10.85
2023-03-23T20:09:48.522Z,10.90
2023-03-23T20:10:54.144Z,10.57
2023-03-23T20:11:56.249Z,10.02
2023-03-23T20:13:00.388Z,11.13
2023-03-23T20:14:04.084Z,10.13
2023-03-23T20:15:12.767Z,10.63
2023-03-23T20:16:21.399Z,10.60
2023-03-23T20:17:24.685Z,9.70
2023-03-23T20:18:29.159Z,10.98
2023-03-23T20:19:32.660Z,9.40
2023-03-23T20:20:36.635Z,10.02
2023-03-23T20:21:40.138Z,9.63
2023-03-23T20:22:45.531Z,9.82
2023-03-23T20:23:49.673Z,9.77
2023-03-23T20:24:54.689Z,11.20
2023-03-23T20:26:09.392Z,10.80
2023-03-23T20:27:13.476Z,10.73
2023-03-23T20:28:16.762Z,11.52
2023-03-23T20:29:20.532Z,9.88
2023-03-23T20:30:23.783Z,9.43
2023-03-23T20:31:28.044Z,9.73
2023-03-23T20:32:33.039Z,9.32
2023-03-23T20:33:35.472Z,9.85
2023-03-23T20:34:39.346Z,8.05
2023-03-23T20:35:41.670Z,8.68
2023-03-23T20:36:46.864Z,8.65
2023-03-23T20:37:54.843Z,8.95
2023-03-23T20:38:58.371Z,9.07
2023-03-23T20:40:07.153Z,8.52
2023-03-23T20:41:12.304Z,8.65
2023-03-23T20:42:15.560Z,8.95
2023-03-23T20:43:18.706Z,12.23
2023-03-23T20:44:23.305Z,10.27
2023-03-23T20:45:26.483Z,9.07
2023-03-23T20:46:29.029Z,9.70
2023-03-23T20:47:46.179Z,8.93
2023-03-23T20:48:50.589Z,8.20
2023-03-23T20:49:54.009Z,8.52
2023-03-23T20:50:56.101Z,9.07
2023-03-23T20:52:00.005Z,8.20
2023-03-23T20:53:02.837Z,8.80
2023-03-23T20:54:06.295Z,8.60
2023-03-23T20:55:11.612Z,8.85
2023-03-23T20:56:14.714Z,8.32
2023-03-23T20:57:17.988Z,8.98
2023-03-23T20:58:21.109Z,9.25
2023-03-23T20:59:24.396Z,8.73
2023-03-23T21:00:29.432Z,8.25
2023-03-23T21:01:33.243Z,8.95
2023-03-23T21:02:35.539Z,9.35
2023-03-23T21:03:40.684Z,9.95
2023-03-23T21:04:47.557Z,9.68
2023-03-23T21:05:50.103Z,9.30
2023-03-23T21:06:53.084Z,9.52
2023-03-23T21:07:57.955Z,9.02
2023-03-23T21:09:00.970Z,9.07
2023-03-23T21:10:03.884Z,9.50
2023-03-23T21:11:11.011Z,9.40
2023-03-23T21:12:13.954Z,10.35
2023-03-23T21:13:16.293Z,9.82
2023-03-23T21:14:19.358Z,8.85
2023-03-23T21:15:21.582Z,9.65
2023-03-23T21:16:27.061Z,9.77
2023-03-23T21:17:30.130Z,8.98
2023-03-23T21:18:33.069Z,9.10
2023-03-23T21:19:38.419Z,9.20
2023-03-23T21:20:45.165Z,9.50
2023-03-23T21:21:56.758Z,9.10
2023-03-23T21:23:01.495Z,9.45
2023-03-23T21:24:04.034Z,8.90
2023-03-23T21:25:08.558Z,9.65
2023-03-23T21:26:12.975Z,9.55
2023-03-23T21:27:27.478Z,9.38
2023-03-23T21:28:29.554Z,9.23
2023-03-23T21:29:32.964Z,8.85
2023-03-23T21:30:45.774Z,9.70
2023-03-23T21:31:55.015Z,9.23
2023-03-23T21:33:08.705Z,9.32
2023-03-23T21:34:39.441Z,9.38
2023-03-23T21:35:45.819Z,16.48
2023-03-23T21:36:51.041Z,15.50
2023-03-23T21:38:04.709Z,12.90
2023-03-23T21:39:07.972Z,9.70
2023-03-23T21:40:17.042Z,9.73
2023-03-23T21:41:20.515Z,8.32
2023-03-23T21:42:32.112Z,9.15
2023-03-23T21:43:37.036Z,7.97
2023-03-23T21:44:43.822Z,8.63
2023-03-23T21:45:55.980Z,7.90
2023-03-23T21:47:01.854Z,8.00
2023-03-23T21:48:06.419Z,8.57
2023-03-23T21:49:14.242Z,8.60
2023-03-23T21:50:17.714Z,8.43
2023-03-23T21:51:22.638Z,8.52
2023-03-23T21:52:25.074Z,9.00
2023-03-23T21:53:30.923Z,8.57
2023-03-23T21:54:34.407Z,8.98
2023-03-23T21:55:41.119Z,8.95
2023-03-23T21:56:48.983Z,9.25
2023-03-23T21:57:51.600Z,9.02
2023-03-23T21:58:55.488Z,8.68
2023-03-23T22:00:01.503Z,9.10
2023-03-23T22:01:08.221Z,9.40
2023-03-23T22:02:17.908Z,9.23
2023-03-23T22:03:24.564Z,8.90
2023-03-23T22:04:42.009Z,8.88
2023-03-23T22:05:46.539Z,8.93
2023-03-23T22:06:51.684Z,8.00
2023-03-23T22:07:54.300Z,8.85
2023-03-23T22:08:57.825Z,9.02
2023-03-23T22:10:00.629Z,7.55
2023-03-23T22:11:08.837Z,8.48
2023-03-23T22:12:16.663Z,8.13
2023-03-23T22:13:20.022Z,8.80
2023-03-23T22:14:23.363Z,9.52
2023-03-23T22:15:28.060Z,9.13
2023-03-23T22:16:31.896Z,8.60
2023-03-23T22:17:37.833Z,9.45
2023-03-23T22:18:43.344Z,8.82
2023-03-23T22:19:46.101Z,9.52
2023-03-23T22:20:49.540Z,8.68
2023-03-23T22:21:52.581Z,9.05
2023-03-23T22:22:54.768Z,8.93
2023-03-23T22:23:59.692Z,8.82
2023-03-23T22:25:01.840Z,8.98
2023-03-23T22:26:05.645Z,8.63
2023-03-23T22:27:07.819Z,8.93
2023-03-23T22:28:12.446Z,8.60
2023-03-23T22:29:17.416Z,9.05
2023-03-23T22:30:19.375Z,8.93
2023-03-23T22:31:26.681Z,9.18
2023-03-23T22:32:28.735Z,9.18
2023-03-23T22:33:32.272Z,8.38
2023-03-23T22:34:36.075Z,8.35
2023-03-23T22:35:38.263Z,8.68
2023-03-23T22:36:41.710Z,8.55
2023-03-23T22:37:43.812Z,8.43
2023-03-23T22:38:48.015Z,8.65
2023-03-23T22:39:51.337Z,8.32
2023-03-23T22:40:57.319Z,8.15
2023-03-23T22:42:00.436Z,8.32
2023-03-23T22:43:03.560Z,7.47
2023-03-23T22:44:12.643Z,7.47
2023-03-23T22:45:14.963Z,7.82
2023-03-23T22:46:18.922Z,8.15
2023-03-23T22:47:22.926Z,7.72
2023-03-23T22:48:26.504Z,7.90
2023-03-23T22:49:29.683Z,8.07
2023-03-23T22:50:32.345Z,8.85
2023-03-23T22:51:36.869Z,8.45
2023-03-23T22:52:39.166Z,8.40
2023-03-23T22:53:42.587Z,8.30
2023-03-23T22:54:44.760Z,8.65
2023-03-23T22:55:49.693Z,7.88
2023-03-23T22:56:54.976Z,7.93
2023-03-23T22:57:58.265Z,8.18
2023-03-23T22:59:00.667Z,7.72
2023-03-23T23:00:08.890Z,8.02
2023-03-23T23:01:14.144Z,8.23
2023-03-23T23:02:17.375Z,7.55
2023-03-23T23:03:19.769Z,8.02
2023-03-23T23:04:23.849Z,8.05
2023-03-23T23:05:28.776Z,7.80
2023-03-23T23:06:43.614Z,8.55
2023-03-23T23:07:46.409Z,8.55
2023-03-23T23:09:32.256Z,8.20
2023-03-23T23:10:38.849Z,7.78
2023-03-23T23:12:18.946Z,7.82
2023-03-23T23:14:01.306Z,8.73
2023-03-23T23:15:14.646Z,8.23
2023-03-23T23:16:18.933Z,8.23
2023-03-23T23:17:21.655Z,7.47
2023-03-23T23:18:25.694Z,7.43
2023-03-23T23:19:30.359Z,8.23
2023-03-23T23:20:34.013Z,7.22
2023-03-23T23:21:36.673Z,7.70
2023-03-23T23:22:43.665Z,8.13
2023-03-23T23:23:47.138Z,7.88
2023-03-23T23:24:50.895Z,8.25
2023-03-23T23:25:53.996Z,8.13
2023-03-23T23:26:58.724Z,8.77
2023-03-23T23:28:02.491Z,8.55
2023-03-23T23:29:06.030Z,8.05
2023-03-23T23:31:00.687Z,8.30
2023-03-23T23:32:03.639Z,7.75
2023-03-23T23:33:08.103Z,8.02
2023-03-23T23:34:14.373Z,9.02
2023-03-23T23:35:18.977Z,7.47
2023-03-23T23:36:21.440Z,8.32
2023-03-23T23:37:25.261Z,7.90
2023-03-23T23:38:27.977Z,8.25
2023-03-23T23:39:31.570Z,8.38
2023-03-23T23:40:37.199Z,9.18
2023-03-23T23:41:41.124Z,8.00
2023-03-23T23:42:44.238Z,8.45
2023-03-23T23:43:47.840Z,8.52
2023-03-23T23:44:50.242Z,7.32
2023-03-23T23:45:53.568Z,7.88
2023-03-23T23:46:57.690Z,7.88
2023-03-23T23:48:01.356Z,7.80
2023-03-23T23:49:07.112Z,7.07
2023-03-23T23:50:11.850Z,8.05
2023-03-23T23:51:15.382Z,7.95
2023-03-23T23:52:27.710Z,7.78
2023-03-23T23:53:31.902Z,8.45
2023-03-23T23:54:37.349Z,7.57
2023-03-23T23:55:40.094Z,7.70
2023-03-23T23:56:43.360Z,7.32
2023-03-23T23:57:46.948Z,8.63
2023-03-23T23:58:50.422Z,7.55
2023-03-23T23:59:53.067Z,7.32
